TVP7268 EPKT-LTAI
Flight info
| Callsign | TVP7268 |
|---|---|
| Flight time | 2h 19m |
| Altitude | 37000 |
| Route | REGTO DCT RAZEC DCT KEKED DCT UPAMA DCT ADORU UG80 EKI UL606 CRD UL854 KOZLU |
| Aircraft | B38M/M-SDE3FGHIJ1RWXYZ/LB1 |
Departure
| Time | 2026-05-07 13:24 |
|---|---|
| Airport | Katowice Wojciech Korfanty International Airport (EPKT) |
Arrival
| Time | 2026-05-07 15:44 |
|---|---|
| Airport | Antalya International Airport (LTAI) |
| Time | Latitude | Longitude | Altitude | Speed | Heading |
|---|---|---|---|---|---|
| 2026-05-07 12:58 | 50.47151 | 19.08471 | 1001 ft | 0 kts | 180° |
| 2026-05-07 13:15 | 50.47154 | 19.08471 | 1001 ft | 2 kts | 180° |
| 2026-05-07 13:15 | 50.47167 | 19.08471 | 1001 ft | 2 kts | 180° |
| 2026-05-07 13:16 | 50.47175 | 19.08471 | 1002 ft | 1 kts | 179° |
| 2026-05-07 13:16 | 50.47180 | 19.08471 | 1002 ft | 0 kts | 179° |
| 2026-05-07 13:17 | 50.47179 | 19.08471 | 1001 ft | 0 kts | 179° |
| 2026-05-07 13:19 | 50.47178 | 19.08472 | 1001 ft | 0 kts | 166° |
| 2026-05-07 13:20 | 50.47177 | 19.08474 | 1001 ft | 0 kts | 142° |
| 2026-05-07 13:20 | 50.47178 | 19.08481 | 1001 ft | 1 kts | 82° |
| 2026-05-07 13:20 | 50.47190 | 19.08496 | 1004 ft | 6 kts | 41° |
| 2026-05-07 13:20 | 50.47233 | 19.08588 | 1003 ft | 13 kts | 84° |
| 2026-05-07 13:21 | 50.47231 | 19.08778 | 1001 ft | 22 kts | 89° |
| 2026-05-07 13:21 | 50.47231 | 19.09033 | 1006 ft | 22 kts | 90° |
| 2026-05-07 13:21 | 50.47231 | 19.09285 | 1006 ft | 24 kts | 90° |
| 2026-05-07 13:21 | 50.47230 | 19.09549 | 1006 ft | 25 kts | 90° |
| 2026-05-07 13:22 | 50.47229 | 19.09824 | 1004 ft | 26 kts | 90° |
| 2026-05-07 13:22 | 50.47254 | 19.10055 | 1004 ft | 20 kts | 52° |
| 2026-05-07 13:22 | 50.47340 | 19.10233 | 1001 ft | 21 kts | 52° |
| 2026-05-07 13:22 | 50.47431 | 19.10414 | 1001 ft | 14 kts | 45° |
| 2026-05-07 13:23 | 50.47525 | 19.10447 | 1001 ft | 15 kts | 1° |
| 2026-05-07 13:23 | 50.47593 | 19.10402 | 1000 ft | 8 kts | 281° |
| 2026-05-07 13:23 | 50.47594 | 19.10368 | 1000 ft | 1 kts | 271° |
| 2026-05-07 13:23 | 50.47595 | 19.10258 | 1005 ft | 36 kts | 270° |
| 2026-05-07 13:24 | 50.47597 | 19.09437 | 1002 ft | 113 kts | 270° |
| 2026-05-07 13:24 | 50.47595 | 19.07857 | 1032 ft | 173 kts | 268° |
| 2026-05-07 13:24 | 50.47585 | 19.05775 | 1535 ft | 199 kts | 269° |
| 2026-05-07 13:24 | 50.47590 | 19.03602 | 2680 ft | 199 kts | 270° |
| 2026-05-07 13:25 | 50.47613 | 19.01388 | 3541 ft | 210 kts | 270° |
| 2026-05-07 13:25 | 50.47635 | 18.99028 | 4143 ft | 229 kts | 268° |
| 2026-05-07 13:25 | 50.47344 | 18.96495 | 4730 ft | 247 kts | 243° |
| 2026-05-07 13:25 | 50.46159 | 18.94469 | 5369 ft | 262 kts | 209° |
| 2026-05-07 13:26 | 50.44411 | 18.93757 | 6470 ft | 263 kts | 181° |
| 2026-05-07 13:26 | 50.42606 | 18.94538 | 7308 ft | 277 kts | 150° |
| 2026-05-07 13:26 | 50.41237 | 18.96618 | 8242 ft | 281 kts | 133° |
| 2026-05-07 13:26 | 50.39937 | 18.98953 | 9046 ft | 289 kts | 135° |
| 2026-05-07 13:27 | 50.38568 | 19.01330 | 9963 ft | 290 kts | 136° |
| 2026-05-07 13:27 | 50.37214 | 19.03671 | 10628 ft | 300 kts | 136° |
| 2026-05-07 13:27 | 50.35758 | 19.06139 | 11082 ft | 317 kts | 136° |
| 2026-05-07 13:27 | 50.34222 | 19.08725 | 11569 ft | 331 kts | 136° |
| 2026-05-07 13:28 | 50.32629 | 19.11408 | 12206 ft | 338 kts | 136° |
| 2026-05-07 13:28 | 50.31050 | 19.14107 | 13099 ft | 337 kts | 136° |
| 2026-05-07 13:28 | 50.29457 | 19.16842 | 13823 ft | 342 kts | 136° |
| 2026-05-07 13:28 | 50.27852 | 19.19604 | 14476 ft | 345 kts | 136° |
| 2026-05-07 13:29 | 50.26227 | 19.22404 | 15097 ft | 349 kts | 136° |
| 2026-05-07 13:29 | 50.24588 | 19.25227 | 15705 ft | 353 kts | 136° |
| 2026-05-07 13:29 | 50.22926 | 19.28083 | 16299 ft | 357 kts | 136° |
| 2026-05-07 13:29 | 50.21245 | 19.30972 | 16891 ft | 361 kts | 136° |
| 2026-05-07 13:30 | 50.19549 | 19.33883 | 17479 ft | 364 kts | 136° |
| 2026-05-07 13:30 | 50.17835 | 19.36823 | 18050 ft | 368 kts | 136° |
| 2026-05-07 13:30 | 50.16145 | 19.39713 | 18558 ft | 371 kts | 136° |
| 2026-05-07 13:30 | 50.14398 | 19.42699 | 19073 ft | 373 kts | 136° |
| 2026-05-07 13:31 | 50.12649 | 19.45696 | 19616 ft | 375 kts | 137° |
| 2026-05-07 13:31 | 50.10884 | 19.48705 | 20092 ft | 378 kts | 137° |
| 2026-05-07 13:31 | 50.09687 | 19.50746 | 20429 ft | 379 kts | 137° |
| 2026-05-07 13:32 | 50.08646 | 19.52522 | 20730 ft | 380 kts | 137° |
| 2026-05-07 13:32 | 50.06854 | 19.55575 | 21224 ft | 383 kts | 137° |
| 2026-05-07 13:32 | 50.05051 | 19.58641 | 21731 ft | 385 kts | 137° |
| 2026-05-07 13:32 | 50.03235 | 19.61726 | 22212 ft | 388 kts | 137° |
| 2026-05-07 13:33 | 50.01405 | 19.64833 | 22699 ft | 390 kts | 137° |
| 2026-05-07 13:33 | 49.99567 | 19.67951 | 23173 ft | 393 kts | 137° |
| 2026-05-07 13:33 | 49.97712 | 19.71089 | 23615 ft | 396 kts | 137° |
| 2026-05-07 13:33 | 49.95843 | 19.74249 | 24029 ft | 398 kts | 137° |
| 2026-05-07 13:34 | 49.93970 | 19.77415 | 24443 ft | 399 kts | 137° |
| 2026-05-07 13:34 | 49.90190 | 19.83793 | 25265 ft | 403 kts | 137° |
| 2026-05-07 13:34 | 49.88900 | 19.85964 | 25490 ft | 406 kts | 137° |
| 2026-05-07 13:35 | 49.86373 | 19.90218 | 26080 ft | 407 kts | 137° |
| 2026-05-07 13:35 | 49.85068 | 19.92410 | 26308 ft | 409 kts | 137° |
| 2026-05-07 13:35 | 49.83161 | 19.95612 | 26687 ft | 411 kts | 137° |
| 2026-05-07 13:35 | 49.81217 | 19.98872 | 27037 ft | 413 kts | 138° |
| 2026-05-07 13:36 | 49.79264 | 20.02142 | 27372 ft | 416 kts | 138° |
| 2026-05-07 13:36 | 49.77291 | 20.05442 | 27723 ft | 418 kts | 137° |
| 2026-05-07 13:36 | 49.75314 | 20.08744 | 28081 ft | 420 kts | 137° |
| 2026-05-07 13:36 | 49.73294 | 20.12114 | 28444 ft | 422 kts | 137° |
| 2026-05-07 13:37 | 49.71320 | 20.15405 | 28772 ft | 425 kts | 138° |
| 2026-05-07 13:37 | 49.69306 | 20.18757 | 29112 ft | 427 kts | 137° |
| 2026-05-07 13:37 | 49.67275 | 20.22132 | 29422 ft | 430 kts | 138° |
| 2026-05-07 13:37 | 49.65239 | 20.25512 | 29756 ft | 432 kts | 138° |
| 2026-05-07 13:38 | 49.63188 | 20.28914 | 30056 ft | 434 kts | 138° |
| 2026-05-07 13:38 | 49.61120 | 20.32337 | 30306 ft | 437 kts | 138° |
| 2026-05-07 13:38 | 49.59044 | 20.35771 | 30546 ft | 439 kts | 138° |
| 2026-05-07 13:38 | 49.56961 | 20.39213 | 30784 ft | 441 kts | 138° |
| 2026-05-07 13:39 | 49.54863 | 20.42673 | 31032 ft | 443 kts | 138° |
| 2026-05-07 13:39 | 49.52753 | 20.46148 | 31305 ft | 444 kts | 138° |
| 2026-05-07 13:39 | 49.50643 | 20.49619 | 31548 ft | 447 kts | 138° |
| 2026-05-07 13:39 | 49.48515 | 20.53116 | 31785 ft | 449 kts | 139° |
| 2026-05-07 13:40 | 49.46368 | 20.56640 | 32042 ft | 451 kts | 139° |
| 2026-05-07 13:40 | 49.44222 | 20.60156 | 32326 ft | 452 kts | 139° |
| 2026-05-07 13:40 | 49.42074 | 20.63672 | 32680 ft | 451 kts | 139° |
| 2026-05-07 13:40 | 49.39891 | 20.67104 | 33009 ft | 448 kts | 141° |
| 2026-05-07 13:41 | 49.37654 | 20.70433 | 33325 ft | 448 kts | 141° |
| 2026-05-07 13:41 | 49.35429 | 20.73767 | 33641 ft | 448 kts | 141° |
| 2026-05-07 13:41 | 49.33204 | 20.77107 | 33944 ft | 447 kts | 141° |
| 2026-05-07 13:41 | 49.30980 | 20.80446 | 34206 ft | 447 kts | 141° |
| 2026-05-07 13:42 | 49.28761 | 20.83772 | 34493 ft | 446 kts | 141° |
| 2026-05-07 13:42 | 49.26541 | 20.87095 | 34767 ft | 446 kts | 141° |
| 2026-05-07 13:42 | 49.24327 | 20.90405 | 35051 ft | 445 kts | 141° |
| 2026-05-07 13:42 | 49.22115 | 20.93709 | 35311 ft | 444 kts | 141° |
| 2026-05-07 13:43 | 49.19901 | 20.97010 | 35567 ft | 444 kts | 141° |
| 2026-05-07 13:43 | 49.17696 | 21.00294 | 35862 ft | 442 kts | 141° |
| 2026-05-07 13:43 | 49.15493 | 21.03570 | 36077 ft | 442 kts | 141° |
| 2026-05-07 13:43 | 49.13226 | 21.06725 | 36278 ft | 437 kts | 150° |
| 2026-05-07 13:44 | 49.10605 | 21.08859 | 36569 ft | 422 kts | 166° |
| 2026-05-07 13:44 | 49.07792 | 21.10100 | 36724 ft | 420 kts | 169° |
| 2026-05-07 13:44 | 49.04995 | 21.11208 | 36827 ft | 421 kts | 170° |
| 2026-05-07 13:44 | 49.02120 | 21.12267 | 36954 ft | 421 kts | 171° |
| 2026-05-07 13:45 | 48.99307 | 21.13266 | 36943 ft | 420 kts | 171° |
| 2026-05-07 13:45 | 48.93619 | 21.15224 | 36946 ft | 419 kts | 171° |
| 2026-05-07 13:46 | 48.87914 | 21.17162 | 36960 ft | 420 kts | 171° |
| 2026-05-07 13:46 | 48.82212 | 21.19091 | 36961 ft | 420 kts | 171° |
| 2026-05-07 13:47 | 48.76509 | 21.21017 | 36966 ft | 420 kts | 171° |
| 2026-05-07 13:47 | 48.70804 | 21.22938 | 36962 ft | 420 kts | 171° |
| 2026-05-07 13:48 | 48.65092 | 21.24858 | 36962 ft | 420 kts | 171° |
| 2026-05-07 13:48 | 48.59377 | 21.26774 | 36964 ft | 421 kts | 171° |
| 2026-05-07 13:49 | 48.53663 | 21.28733 | 36958 ft | 423 kts | 167° |
| 2026-05-07 13:49 | 48.50972 | 21.30582 | 36966 ft | 430 kts | 153° |
| 2026-05-07 13:49 | 48.48409 | 21.32923 | 36949 ft | 431 kts | 154° |
| 2026-05-07 13:50 | 48.43262 | 21.37616 | 36957 ft | 433 kts | 153° |
| 2026-05-07 13:50 | 48.38132 | 21.42375 | 36960 ft | 433 kts | 153° |
| 2026-05-07 13:51 | 48.33008 | 21.47137 | 36960 ft | 433 kts | 153° |
| 2026-05-07 13:51 | 48.27881 | 21.51891 | 36970 ft | 433 kts | 153° |
| 2026-05-07 13:52 | 48.22754 | 21.56634 | 36987 ft | 433 kts | 153° |
| 2026-05-07 13:52 | 48.17617 | 21.61375 | 37003 ft | 433 kts | 153° |
| 2026-05-07 13:53 | 48.12480 | 21.66105 | 37008 ft | 433 kts | 153° |
| 2026-05-07 13:53 | 48.07343 | 21.70824 | 37019 ft | 434 kts | 153° |
| 2026-05-07 13:54 | 48.02197 | 21.75538 | 37017 ft | 434 kts | 153° |
| 2026-05-07 13:54 | 47.97050 | 21.80244 | 37017 ft | 434 kts | 153° |
| 2026-05-07 13:55 | 47.91902 | 21.84940 | 37014 ft | 434 kts | 153° |
| 2026-05-07 13:55 | 47.86744 | 21.89632 | 37009 ft | 435 kts | 153° |
| 2026-05-07 13:56 | 47.81574 | 21.94326 | 37004 ft | 435 kts | 153° |
| 2026-05-07 13:56 | 47.76404 | 21.99007 | 37003 ft | 435 kts | 153° |
| 2026-05-07 13:57 | 47.71230 | 22.03681 | 36998 ft | 435 kts | 153° |
| 2026-05-07 13:57 | 47.66051 | 22.08349 | 37012 ft | 436 kts | 153° |
| 2026-05-07 13:58 | 47.60866 | 22.13012 | 37010 ft | 436 kts | 153° |
| 2026-05-07 13:58 | 47.55675 | 22.17669 | 37010 ft | 436 kts | 153° |
| 2026-05-07 13:59 | 47.50479 | 22.22319 | 37017 ft | 437 kts | 153° |
| 2026-05-07 13:59 | 47.45274 | 22.26966 | 37006 ft | 437 kts | 153° |
| 2026-05-07 14:00 | 47.40065 | 22.31607 | 37012 ft | 438 kts | 153° |
| 2026-05-07 14:00 | 47.34853 | 22.36239 | 37009 ft | 438 kts | 153° |
| 2026-05-07 14:01 | 47.29626 | 22.40873 | 37018 ft | 438 kts | 153° |
| 2026-05-07 14:01 | 47.24371 | 22.45522 | 37017 ft | 438 kts | 153° |
| 2026-05-07 14:02 | 47.19144 | 22.50134 | 37014 ft | 439 kts | 153° |
| 2026-05-07 14:02 | 47.13905 | 22.54748 | 37015 ft | 439 kts | 153° |
| 2026-05-07 14:03 | 47.08666 | 22.59350 | 37024 ft | 439 kts | 153° |
| 2026-05-07 14:03 | 47.03412 | 22.63955 | 37026 ft | 440 kts | 153° |
| 2026-05-07 14:04 | 46.98131 | 22.68572 | 37024 ft | 440 kts | 153° |
| 2026-05-07 14:04 | 46.92888 | 22.73146 | 37025 ft | 441 kts | 153° |
| 2026-05-07 14:05 | 46.87617 | 22.77733 | 37024 ft | 441 kts | 153° |
| 2026-05-07 14:05 | 46.82341 | 22.82314 | 37022 ft | 441 kts | 153° |
| 2026-05-07 14:06 | 46.77062 | 22.86887 | 37027 ft | 442 kts | 153° |
| 2026-05-07 14:06 | 46.71778 | 22.91454 | 37029 ft | 442 kts | 153° |
| 2026-05-07 14:07 | 46.66491 | 22.96014 | 37028 ft | 442 kts | 153° |
| 2026-05-07 14:07 | 46.61200 | 23.00565 | 37024 ft | 442 kts | 153° |
| 2026-05-07 14:08 | 46.55907 | 23.05109 | 37029 ft | 442 kts | 153° |
| 2026-05-07 14:08 | 46.50607 | 23.09648 | 37023 ft | 442 kts | 153° |
| 2026-05-07 14:09 | 46.45317 | 23.14168 | 37017 ft | 442 kts | 153° |
| 2026-05-07 14:09 | 46.40016 | 23.18687 | 37010 ft | 442 kts | 153° |
| 2026-05-07 14:10 | 46.34709 | 23.23201 | 37008 ft | 442 kts | 154° |
| 2026-05-07 14:10 | 46.29399 | 23.27706 | 37020 ft | 442 kts | 154° |
| 2026-05-07 14:11 | 46.24094 | 23.32199 | 37006 ft | 442 kts | 154° |
| 2026-05-07 14:11 | 46.18781 | 23.36688 | 37009 ft | 443 kts | 154° |
| 2026-05-07 14:12 | 46.13465 | 23.41168 | 37012 ft | 443 kts | 154° |
| 2026-05-07 14:12 | 46.08141 | 23.45646 | 37011 ft | 443 kts | 154° |
| 2026-05-07 14:13 | 46.02811 | 23.50118 | 37000 ft | 444 kts | 154° |
| 2026-05-07 14:13 | 45.97473 | 23.54587 | 37005 ft | 444 kts | 154° |
| 2026-05-07 14:14 | 45.92125 | 23.59054 | 36996 ft | 445 kts | 154° |
| 2026-05-07 14:14 | 45.86721 | 23.63366 | 37012 ft | 444 kts | 155° |
| 2026-05-07 14:15 | 45.81302 | 23.67656 | 37022 ft | 445 kts | 155° |
| 2026-05-07 14:15 | 45.75894 | 23.71934 | 37015 ft | 445 kts | 155° |
| 2026-05-07 14:16 | 45.71382 | 23.75495 | 37019 ft | 445 kts | 155° |
| 2026-05-07 14:16 | 45.65970 | 23.79760 | 37023 ft | 444 kts | 155° |
| 2026-05-07 14:17 | 45.60562 | 23.84011 | 37020 ft | 444 kts | 155° |
| 2026-05-07 14:17 | 45.55109 | 23.88288 | 37030 ft | 444 kts | 155° |
| 2026-05-07 14:18 | 45.49695 | 23.92526 | 37035 ft | 444 kts | 155° |
| 2026-05-07 14:18 | 45.44270 | 23.96762 | 37045 ft | 444 kts | 156° |
| 2026-05-07 14:19 | 45.38849 | 24.00985 | 37046 ft | 444 kts | 155° |
| 2026-05-07 14:19 | 45.33425 | 24.05202 | 37033 ft | 444 kts | 155° |
| 2026-05-07 14:20 | 45.28005 | 24.09407 | 37042 ft | 444 kts | 155° |
| 2026-05-07 14:20 | 45.22545 | 24.13633 | 37047 ft | 444 kts | 155° |
| 2026-05-07 14:21 | 45.17118 | 24.17825 | 37044 ft | 445 kts | 155° |
| 2026-05-07 14:21 | 45.11680 | 24.22015 | 37038 ft | 445 kts | 155° |
| 2026-05-07 14:22 | 45.06238 | 24.26200 | 37038 ft | 445 kts | 155° |
| 2026-05-07 14:22 | 45.00790 | 24.30380 | 37034 ft | 445 kts | 155° |
| 2026-05-07 14:23 | 44.95340 | 24.34552 | 37033 ft | 445 kts | 155° |
| 2026-05-07 14:23 | 44.89896 | 24.38711 | 37030 ft | 445 kts | 155° |
| 2026-05-07 14:24 | 44.84445 | 24.42866 | 37046 ft | 446 kts | 155° |
| 2026-05-07 14:24 | 44.78973 | 24.47029 | 37027 ft | 445 kts | 155° |
| 2026-05-07 14:25 | 44.73538 | 24.51154 | 37029 ft | 446 kts | 155° |
| 2026-05-07 14:25 | 44.68079 | 24.55288 | 37029 ft | 446 kts | 155° |
| 2026-05-07 14:26 | 44.62582 | 24.59442 | 37027 ft | 446 kts | 155° |
| 2026-05-07 14:26 | 44.57120 | 24.63560 | 37033 ft | 446 kts | 155° |
| 2026-05-07 14:27 | 44.51613 | 24.67704 | 37028 ft | 446 kts | 155° |
| 2026-05-07 14:27 | 44.46173 | 24.71789 | 37027 ft | 447 kts | 155° |
| 2026-05-07 14:28 | 44.40694 | 24.75894 | 37024 ft | 447 kts | 156° |
| 2026-05-07 14:28 | 44.35173 | 24.80021 | 37027 ft | 447 kts | 156° |
| 2026-05-07 14:29 | 44.29682 | 24.84118 | 37027 ft | 448 kts | 156° |
| 2026-05-07 14:29 | 44.24222 | 24.88183 | 37017 ft | 448 kts | 156° |
| 2026-05-07 14:30 | 44.18710 | 24.92277 | 37023 ft | 449 kts | 156° |
| 2026-05-07 14:30 | 44.13199 | 24.96363 | 37025 ft | 449 kts | 156° |
| 2026-05-07 14:31 | 44.07685 | 25.00441 | 37024 ft | 450 kts | 155° |
| 2026-05-07 14:31 | 44.02155 | 25.04523 | 37022 ft | 450 kts | 155° |
| 2026-05-07 14:32 | 43.96620 | 25.08600 | 37014 ft | 450 kts | 155° |
| 2026-05-07 14:32 | 43.91086 | 25.12667 | 37019 ft | 451 kts | 155° |
| 2026-05-07 14:33 | 43.85543 | 25.16733 | 37013 ft | 451 kts | 155° |
| 2026-05-07 14:33 | 43.79958 | 25.20820 | 37018 ft | 451 kts | 155° |
| 2026-05-07 14:34 | 43.74410 | 25.24871 | 37016 ft | 451 kts | 155° |
| 2026-05-07 14:34 | 43.68856 | 25.28919 | 37013 ft | 451 kts | 155° |
| 2026-05-07 14:35 | 43.63289 | 25.32967 | 37004 ft | 452 kts | 155° |
| 2026-05-07 14:35 | 43.57725 | 25.37006 | 37012 ft | 452 kts | 155° |
| 2026-05-07 14:36 | 43.52158 | 25.41037 | 37004 ft | 453 kts | 155° |
| 2026-05-07 14:36 | 43.46582 | 25.45066 | 37010 ft | 453 kts | 155° |
| 2026-05-07 14:37 | 43.40982 | 25.49104 | 37011 ft | 454 kts | 155° |
| 2026-05-07 14:37 | 43.32585 | 25.55144 | 37010 ft | 454 kts | 155° |
| 2026-05-07 14:38 | 43.26979 | 25.59166 | 37015 ft | 455 kts | 155° |
| 2026-05-07 14:38 | 43.21366 | 25.63184 | 37023 ft | 455 kts | 155° |
| 2026-05-07 14:39 | 43.15741 | 25.67202 | 37017 ft | 456 kts | 155° |
| 2026-05-07 14:39 | 43.10114 | 25.71214 | 37021 ft | 456 kts | 155° |
| 2026-05-07 14:40 | 43.04476 | 25.75224 | 37022 ft | 457 kts | 155° |
| 2026-05-07 14:40 | 42.98833 | 25.79230 | 37023 ft | 457 kts | 155° |
| 2026-05-07 14:41 | 42.93196 | 25.83224 | 37024 ft | 457 kts | 155° |
| 2026-05-07 14:41 | 42.87550 | 25.87215 | 37032 ft | 457 kts | 156° |
| 2026-05-07 14:42 | 42.81900 | 25.91201 | 37036 ft | 457 kts | 156° |
| 2026-05-07 14:42 | 42.76249 | 25.95180 | 37048 ft | 457 kts | 156° |
| 2026-05-07 14:43 | 42.70594 | 25.99153 | 37050 ft | 458 kts | 156° |
| 2026-05-07 14:43 | 42.64936 | 26.03120 | 37049 ft | 458 kts | 156° |
| 2026-05-07 14:44 | 42.59278 | 26.07079 | 37051 ft | 458 kts | 156° |
| 2026-05-07 14:44 | 42.53609 | 26.11037 | 37054 ft | 458 kts | 156° |
| 2026-05-07 14:45 | 42.47887 | 26.15025 | 37051 ft | 458 kts | 156° |
| 2026-05-07 14:45 | 42.42232 | 26.18957 | 37052 ft | 458 kts | 156° |
| 2026-05-07 14:46 | 42.36548 | 26.22901 | 37055 ft | 459 kts | 156° |
| 2026-05-07 14:46 | 42.30868 | 26.26834 | 37054 ft | 459 kts | 156° |
| 2026-05-07 14:47 | 42.25180 | 26.30765 | 37056 ft | 459 kts | 156° |
| 2026-05-07 14:47 | 42.19481 | 26.34696 | 37055 ft | 460 kts | 156° |
| 2026-05-07 14:48 | 42.14741 | 26.37960 | 37057 ft | 460 kts | 156° |
| 2026-05-07 14:48 | 42.08110 | 26.42516 | 37055 ft | 461 kts | 156° |
| 2026-05-07 14:49 | 42.03321 | 26.45798 | 37059 ft | 461 kts | 156° |
| 2026-05-07 14:49 | 41.97560 | 26.49742 | 37056 ft | 462 kts | 156° |
| 2026-05-07 14:50 | 41.91834 | 26.53652 | 37056 ft | 462 kts | 156° |
| 2026-05-07 14:50 | 41.86152 | 26.57806 | 37056 ft | 464 kts | 147° |
| 2026-05-07 14:51 | 41.80865 | 26.62810 | 37065 ft | 465 kts | 147° |
| 2026-05-07 14:51 | 41.75572 | 26.67806 | 37062 ft | 466 kts | 147° |
| 2026-05-07 14:52 | 41.70276 | 26.72801 | 37062 ft | 466 kts | 147° |
| 2026-05-07 14:52 | 41.64967 | 26.77798 | 37067 ft | 466 kts | 147° |
| 2026-05-07 14:53 | 41.59661 | 26.82783 | 37065 ft | 466 kts | 147° |
| 2026-05-07 14:53 | 41.54351 | 26.87761 | 37068 ft | 467 kts | 147° |
| 2026-05-07 14:54 | 41.49033 | 26.92736 | 37068 ft | 467 kts | 147° |
| 2026-05-07 14:54 | 41.43710 | 26.97706 | 37075 ft | 467 kts | 147° |
| 2026-05-07 14:55 | 41.38385 | 27.02668 | 37078 ft | 468 kts | 147° |
| 2026-05-07 14:55 | 41.33045 | 27.07633 | 37073 ft | 468 kts | 147° |
| 2026-05-07 14:56 | 41.27704 | 27.12589 | 37075 ft | 469 kts | 147° |
| 2026-05-07 14:56 | 41.22352 | 27.17547 | 37073 ft | 469 kts | 147° |
| 2026-05-07 14:57 | 41.16995 | 27.22496 | 37083 ft | 469 kts | 147° |
| 2026-05-07 14:57 | 41.11632 | 27.27441 | 37084 ft | 469 kts | 147° |
| 2026-05-07 14:58 | 41.06268 | 27.32377 | 37087 ft | 470 kts | 147° |
| 2026-05-07 14:58 | 41.00898 | 27.37308 | 37088 ft | 470 kts | 147° |
| 2026-05-07 14:59 | 40.95520 | 27.42212 | 37083 ft | 469 kts | 150° |
| 2026-05-07 14:59 | 40.89839 | 27.46436 | 37089 ft | 468 kts | 153° |
| 2026-05-07 15:00 | 40.84180 | 27.50719 | 37093 ft | 469 kts | 152° |
| 2026-05-07 15:00 | 40.78524 | 27.55017 | 37092 ft | 469 kts | 152° |
| 2026-05-07 15:01 | 40.72840 | 27.59332 | 37095 ft | 469 kts | 152° |
| 2026-05-07 15:01 | 40.67183 | 27.63616 | 37093 ft | 469 kts | 152° |
| 2026-05-07 15:02 | 40.61517 | 27.67899 | 37092 ft | 469 kts | 153° |
| 2026-05-07 15:02 | 40.55892 | 27.72142 | 37093 ft | 470 kts | 153° |
| 2026-05-07 15:03 | 40.50219 | 27.76414 | 37099 ft | 470 kts | 153° |
| 2026-05-07 15:03 | 40.44543 | 27.80679 | 37095 ft | 471 kts | 153° |
| 2026-05-07 15:04 | 40.38815 | 27.84975 | 37097 ft | 471 kts | 153° |
| 2026-05-07 15:05 | 40.27194 | 27.93665 | 37088 ft | 472 kts | 153° |
| 2026-05-07 15:05 | 40.21533 | 27.97885 | 37089 ft | 472 kts | 153° |
| 2026-05-07 15:06 | 40.15820 | 28.02136 | 37084 ft | 472 kts | 153° |
| 2026-05-07 15:06 | 40.10103 | 28.06381 | 37088 ft | 473 kts | 153° |
| 2026-05-07 15:07 | 40.04349 | 28.10647 | 37088 ft | 473 kts | 153° |
| 2026-05-07 15:07 | 39.98619 | 28.14887 | 37084 ft | 473 kts | 153° |
| 2026-05-07 15:08 | 39.92884 | 28.19103 | 37083 ft | 474 kts | 153° |
| 2026-05-07 15:08 | 39.87126 | 28.23298 | 37085 ft | 474 kts | 153° |
| 2026-05-07 15:09 | 39.81369 | 28.27488 | 37094 ft | 474 kts | 153° |
| 2026-05-07 15:09 | 39.75558 | 28.31709 | 37096 ft | 475 kts | 153° |
| 2026-05-07 15:10 | 39.69824 | 28.35866 | 37103 ft | 476 kts | 153° |
| 2026-05-07 15:10 | 39.64933 | 28.39406 | 37103 ft | 476 kts | 153° |
| 2026-05-07 15:11 | 39.58200 | 28.44269 | 37110 ft | 477 kts | 153° |
| 2026-05-07 15:11 | 39.53341 | 28.47772 | 37119 ft | 477 kts | 153° |
| 2026-05-07 15:12 | 39.47531 | 28.51953 | 37125 ft | 478 kts | 153° |
| 2026-05-07 15:12 | 39.41727 | 28.56122 | 37125 ft | 478 kts | 153° |
| 2026-05-07 15:13 | 39.35901 | 28.60299 | 37125 ft | 479 kts | 153° |
| 2026-05-07 15:13 | 39.30070 | 28.64470 | 37129 ft | 479 kts | 153° |
| 2026-05-07 15:14 | 39.24238 | 28.68635 | 37131 ft | 479 kts | 153° |
| 2026-05-07 15:14 | 39.18406 | 28.72793 | 37134 ft | 479 kts | 153° |
| 2026-05-07 15:15 | 39.12607 | 28.76919 | 37138 ft | 479 kts | 153° |
| 2026-05-07 15:15 | 39.06766 | 28.81077 | 37137 ft | 480 kts | 153° |
| 2026-05-07 15:16 | 39.00887 | 28.85265 | 37136 ft | 480 kts | 153° |
| 2026-05-07 15:16 | 38.95040 | 28.89424 | 37144 ft | 480 kts | 153° |
| 2026-05-07 15:17 | 38.89192 | 28.93575 | 37144 ft | 481 kts | 153° |
| 2026-05-07 15:17 | 38.83335 | 28.97724 | 37147 ft | 481 kts | 153° |
| 2026-05-07 15:18 | 38.77470 | 29.01871 | 37144 ft | 481 kts | 153° |
| 2026-05-07 15:18 | 38.71604 | 29.06011 | 37142 ft | 482 kts | 153° |
| 2026-05-07 15:19 | 38.65766 | 29.10124 | 37155 ft | 482 kts | 153° |
| 2026-05-07 15:19 | 38.59886 | 29.14261 | 37157 ft | 483 kts | 153° |
| 2026-05-07 15:20 | 38.53998 | 29.18397 | 37156 ft | 483 kts | 153° |
| 2026-05-07 15:20 | 38.48099 | 29.22532 | 37157 ft | 484 kts | 153° |
| 2026-05-07 15:21 | 38.42195 | 29.26663 | 37154 ft | 484 kts | 153° |
| 2026-05-07 15:21 | 38.36280 | 29.30793 | 37153 ft | 485 kts | 153° |
| 2026-05-07 15:22 | 38.30360 | 29.34920 | 37156 ft | 485 kts | 153° |
| 2026-05-07 15:22 | 38.24438 | 29.39041 | 37159 ft | 486 kts | 153° |
| 2026-05-07 15:23 | 38.18493 | 29.43169 | 37158 ft | 487 kts | 153° |
| 2026-05-07 15:23 | 38.12548 | 29.47290 | 37141 ft | 486 kts | 153° |
| 2026-05-07 15:24 | 38.09600 | 29.49331 | 36915 ft | 480 kts | 153° |
| 2026-05-07 15:24 | 38.06679 | 29.51351 | 36481 ft | 475 kts | 154° |
| 2026-05-07 15:24 | 38.03789 | 29.53348 | 35976 ft | 472 kts | 153° |
| 2026-05-07 15:24 | 38.00912 | 29.55334 | 35389 ft | 472 kts | 153° |
| 2026-05-07 15:25 | 37.98018 | 29.57329 | 34787 ft | 472 kts | 153° |
| 2026-05-07 15:25 | 37.95139 | 29.59314 | 34312 ft | 469 kts | 153° |
| 2026-05-07 15:25 | 37.92280 | 29.61282 | 33809 ft | 467 kts | 153° |
| 2026-05-07 15:25 | 37.89436 | 29.63238 | 33283 ft | 463 kts | 153° |
| 2026-05-07 15:26 | 37.86618 | 29.65175 | 32821 ft | 460 kts | 153° |
| 2026-05-07 15:26 | 37.83815 | 29.67100 | 32334 ft | 456 kts | 153° |
| 2026-05-07 15:26 | 37.81038 | 29.69007 | 31869 ft | 453 kts | 153° |
| 2026-05-07 15:26 | 37.78412 | 29.71183 | 31327 ft | 452 kts | 138° |
| 2026-05-07 15:27 | 37.76204 | 29.73989 | 30860 ft | 449 kts | 135° |
| 2026-05-07 15:27 | 37.73975 | 29.76787 | 30435 ft | 445 kts | 135° |
| 2026-05-07 15:27 | 37.71787 | 29.79540 | 29920 ft | 443 kts | 135° |
| 2026-05-07 15:27 | 37.69614 | 29.82283 | 29388 ft | 441 kts | 134° |
| 2026-05-07 15:28 | 37.67454 | 29.85009 | 28904 ft | 437 kts | 134° |
| 2026-05-07 15:28 | 37.65315 | 29.87709 | 28447 ft | 433 kts | 134° |
| 2026-05-07 15:28 | 37.63190 | 29.90387 | 27962 ft | 430 kts | 134° |
| 2026-05-07 15:28 | 37.61080 | 29.93045 | 27486 ft | 428 kts | 134° |
| 2026-05-07 15:29 | 37.58985 | 29.95682 | 27035 ft | 425 kts | 134° |
| 2026-05-07 15:29 | 37.56902 | 29.98301 | 26563 ft | 422 kts | 134° |
| 2026-05-07 15:29 | 37.54834 | 30.00924 | 26069 ft | 421 kts | 133° |
| 2026-05-07 15:29 | 37.52780 | 30.03545 | 25595 ft | 419 kts | 133° |
| 2026-05-07 15:30 | 37.50762 | 30.06153 | 25013 ft | 413 kts | 129° |
| 2026-05-07 15:30 | 37.49211 | 30.09182 | 24078 ft | 411 kts | 109° |
| 2026-05-07 15:30 | 37.48243 | 30.12542 | 23276 ft | 407 kts | 107° |
| 2026-05-07 15:30 | 37.47241 | 30.15860 | 22410 ft | 405 kts | 108° |
| 2026-05-07 15:31 | 37.46247 | 30.19175 | 21568 ft | 403 kts | 108° |
| 2026-05-07 15:31 | 37.45264 | 30.22471 | 20724 ft | 401 kts | 108° |
| 2026-05-07 15:31 | 37.44289 | 30.25741 | 19894 ft | 399 kts | 108° |
| 2026-05-07 15:31 | 37.43315 | 30.29007 | 19063 ft | 398 kts | 108° |
| 2026-05-07 15:32 | 37.42343 | 30.32264 | 18191 ft | 397 kts | 108° |
| 2026-05-07 15:32 | 37.41377 | 30.35497 | 17294 ft | 394 kts | 108° |
| 2026-05-07 15:32 | 37.40419 | 30.38702 | 16458 ft | 390 kts | 109° |
| 2026-05-07 15:32 | 37.39468 | 30.41877 | 15647 ft | 386 kts | 108° |
| 2026-05-07 15:33 | 37.38531 | 30.45001 | 14809 ft | 380 kts | 108° |
| 2026-05-07 15:33 | 37.37587 | 30.48148 | 13680 ft | 386 kts | 108° |
| 2026-05-07 15:33 | 37.36649 | 30.51265 | 12959 ft | 376 kts | 109° |
| 2026-05-07 15:33 | 37.35737 | 30.54298 | 12258 ft | 366 kts | 108° |
| 2026-05-07 15:34 | 37.34845 | 30.57263 | 11507 ft | 359 kts | 109° |
| 2026-05-07 15:34 | 37.33966 | 30.60178 | 10761 ft | 354 kts | 109° |
| 2026-05-07 15:34 | 37.33099 | 30.63046 | 10027 ft | 350 kts | 109° |
| 2026-05-07 15:34 | 37.32242 | 30.65884 | 9203 ft | 345 kts | 109° |
| 2026-05-07 15:35 | 37.31393 | 30.68679 | 8460 ft | 339 kts | 110° |
| 2026-05-07 15:35 | 37.30527 | 30.71398 | 7769 ft | 332 kts | 110° |
| 2026-05-07 15:35 | 37.29658 | 30.74103 | 7082 ft | 327 kts | 110° |
| 2026-05-07 15:35 | 37.28812 | 30.76718 | 6404 ft | 321 kts | 110° |
| 2026-05-07 15:36 | 37.27983 | 30.79299 | 5809 ft | 314 kts | 110° |
| 2026-05-07 15:36 | 37.26967 | 30.81625 | 5542 ft | 297 kts | 132° |
| 2026-05-07 15:36 | 37.25297 | 30.82946 | 5343 ft | 279 kts | 167° |
| 2026-05-07 15:36 | 37.23433 | 30.83029 | 5187 ft | 259 kts | 185° |
| 2026-05-07 15:37 | 37.21688 | 30.82961 | 5029 ft | 243 kts | 181° |
| 2026-05-07 15:37 | 37.20038 | 30.82938 | 4861 ft | 233 kts | 181° |
| 2026-05-07 15:37 | 37.18415 | 30.82924 | 4751 ft | 235 kts | 181° |
| 2026-05-07 15:37 | 37.16827 | 30.82917 | 4643 ft | 218 kts | 182° |
| 2026-05-07 15:38 | 37.15398 | 30.82764 | 4599 ft | 196 kts | 187° |
| 2026-05-07 15:38 | 37.14106 | 30.82572 | 4457 ft | 181 kts | 188° |
| 2026-05-07 15:38 | 37.12866 | 30.82392 | 4281 ft | 182 kts | 188° |
| 2026-05-07 15:38 | 37.11573 | 30.82213 | 4062 ft | 189 kts | 186° |
| 2026-05-07 15:39 | 37.10261 | 30.82038 | 3803 ft | 190 kts | 186° |
| 2026-05-07 15:39 | 37.08962 | 30.81865 | 3558 ft | 186 kts | 186° |
| 2026-05-07 15:39 | 37.07701 | 30.81694 | 3346 ft | 180 kts | 186° |
| 2026-05-07 15:39 | 37.06479 | 30.81526 | 3113 ft | 173 kts | 186° |
| 2026-05-07 15:40 | 37.05307 | 30.81364 | 2875 ft | 165 kts | 185° |
| 2026-05-07 15:40 | 37.04163 | 30.81208 | 2669 ft | 166 kts | 185° |
| 2026-05-07 15:40 | 37.03024 | 30.81056 | 2435 ft | 164 kts | 185° |
| 2026-05-07 15:40 | 37.01896 | 30.80897 | 2236 ft | 161 kts | 185° |
| 2026-05-07 15:41 | 37.00812 | 30.80749 | 2051 ft | 154 kts | 185° |
| 2026-05-07 15:41 | 36.99762 | 30.80602 | 1842 ft | 150 kts | 186° |
| 2026-05-07 15:41 | 36.98728 | 30.80460 | 1636 ft | 149 kts | 185° |
| 2026-05-07 15:41 | 36.97695 | 30.80315 | 1416 ft | 149 kts | 186° |
| 2026-05-07 15:42 | 36.96669 | 30.80179 | 1228 ft | 147 kts | 185° |
| 2026-05-07 15:42 | 36.95655 | 30.80035 | 1009 ft | 147 kts | 183° |
| 2026-05-07 15:42 | 36.94624 | 30.79884 | 825 ft | 149 kts | 183° |
| 2026-05-07 15:42 | 36.93606 | 30.79755 | 627 ft | 146 kts | 183° |
| 2026-05-07 15:43 | 36.92586 | 30.79626 | 389 ft | 147 kts | 183° |
| 2026-05-07 15:43 | 36.91584 | 30.79485 | 236 ft | 142 kts | 184° |
| 2026-05-07 15:43 | 36.90687 | 30.79361 | 193 ft | 104 kts | 186° |
| 2026-05-07 15:43 | 36.90179 | 30.79291 | 201 ft | 51 kts | 187° |
| 2026-05-07 15:44 | 36.89951 | 30.79261 | 195 ft | 15 kts | 186° |
| 2026-05-07 15:44 | 36.89879 | 30.79251 | 192 ft | 14 kts | 185° |